sensor_id;sensor_type;location;lat;lon;timestamp;pressure;altitude;pressure_sealevel;temperature;humidity
10310;BME280;5200;43.236;27.986;2022-08-01T00:00:21;99458.50;;;19.94;100.00
10310;BME280;5200;43.236;27.986;2022-08-01T00:02:48;99480.44;;;20.09;100.00
10310;BME280;5200;43.236;27.986;2022-08-01T00:05:14;99442.72;;;19.92;100.00
10310;BME280;5200;43.236;27.986;2022-08-01T00:07:43;99459.69;;;20.11;100.00
10310;BME280;5200;43.236;27.986;2022-08-01T00:10:12;99460.53;;;20.05;100.00
10310;BME280;5200;43.236;27.986;2022-08-01T00:12:40;99451.09;;;19.96;100.00
10310;BME280;5200;43.236;27.986;2022-08-01T00:15:09;99461.50;;;20.11;100.00
10310;BME280;5200;43.236;27.986;2022-08-01T00:17:37;99468.31;;;20.13;100.00
10310;BME280;5200;43.236;27.986;2022-08-01T00:20:07;99460.47;;;20.18;100.00
10310;BME280;5200;43.236;27.986;2022-08-01T00:22:34;99438.31;;;20.11;100.00
10310;BME280;5200;43.236;27.986;2022-08-01T00:25:03;99434.22;;;20.09;100.00
10310;BME280;5200;43.236;27.986;2022-08-01T00:27:30;99431.16;;;20.05;100.00
10310;BME280;5200;43.236;27.986;2022-08-01T00:29:57;99444.84;;;20.15;100.00
10310;BME280;5200;43.236;27.986;2022-08-01T00:32:25;99444.84;;;20.15;100.00
10310;BME280;5200;43.236;27.986;2022-08-01T00:34:52;99435.03;;;20.09;100.00
10310;BME280;5200;43.236;27.986;2022-08-01T00:37:19;99422.34;;;19.98;100.00
10310;BME280;5200;43.236;27.986;2022-08-01T00:39:45;99415.78;;;19.94;100.00
10310;BME280;5200;43.236;27.986;2022-08-01T00:42:14;99428.91;;;20.02;100.00
10310;BME280;5200;43.236;27.986;2022-08-01T00:44:41;99413.56;;;19.91;100.00
10310;BME280;5200;43.236;27.986;2022-08-01T00:47:08;99414.59;;;19.90;100.00
10310;BME280;5200;43.236;27.986;2022-08-01T00:49:35;99425.28;;;19.90;100.00
10310;BME280;5200;43.236;27.986;2022-08-01T00:52:03;99410.13;;;19.77;100.00
10310;BME280;5200;43.236;27.986;2022-08-01T00:54:31;99410.97;;;19.71;100.00
10310;BME280;5200;43.236;27.986;2022-08-01T00:56:59;99413.88;;;19.69;100.00
10310;BME280;5200;43.236;27.986;2022-08-01T00:59:27;99426.41;;;19.69;100.00
10310;BME280;5200;43.236;27.986;2022-08-01T01:01:54;99429.25;;;19.74;100.00
10310;BME280;5200;43.236;27.986;2022-08-01T01:04:21;99432.72;;;19.74;100.00
10310;BME280;5200;43.236;27.986;2022-08-01T01:06:57;99416.78;;;19.54;100.00
10310;BME280;5200;43.236;27.986;2022-08-01T01:09:33;99413.50;;;19.52;99.02
10310;BME280;5200;43.236;27.986;2022-08-01T01:12:13;99412.06;;;19.50;98.55
10310;BME280;5200;43.236;27.986;2022-08-01T01:14:50;99411.44;;;19.48;97.75
10310;BME280;5200;43.236;27.986;2022-08-01T01:17:24;99393.00;;;19.33;96.17
10310;BME280;5200;43.236;27.986;2022-08-01T01:19:57;99429.50;;;19.46;93.91
10310;BME280;5200;43.236;27.986;2022-08-01T01:22:36;99429.94;;;19.42;92.30
10310;BME280;5200;43.236;27.986;2022-08-01T01:25:24;99420.91;;;19.37;92.03
10310;BME280;5200;43.236;27.986;2022-08-01T01:28:03;99402.88;;;19.19;91.75
10310;BME280;5200;43.236;27.986;2022-08-01T01:30:38;99414.78;;;19.16;91.43
10310;BME280;5200;43.236;27.986;2022-08-01T01:33:08;99416.03;;;19.14;91.29
10310;BME280;5200;43.236;27.986;2022-08-01T01:35:41;99416.44;;;19.11;90.84
10310;BME280;5200;43.236;27.986;2022-08-01T01:38:14;99423.22;;;19.07;90.58
10310;BME280;5200;43.236;27.986;2022-08-01T01:40:44;99424.66;;;19.03;90.51
10310;BME280;5200;43.236;27.986;2022-08-01T01:43:13;99402.53;;;18.82;90.74
10310;BME280;5200;43.236;27.986;2022-08-01T01:45:44;99430.00;;;18.96;90.25
10310;BME280;5200;43.236;27.986;2022-08-01T01:48:14;99407.44;;;18.92;90.21
10310;BME280;5200;43.236;27.986;2022-08-01T01:50:43;99386.53;;;18.82;88.60
10310;BME280;5200;43.236;27.986;2022-08-01T01:53:12;99386.13;;;18.78;87.47
10310;BME280;5200;43.236;27.986;2022-08-01T01:55:41;99407.03;;;18.88;87.38
10310;BME280;5200;43.236;27.986;2022-08-01T01:58:12;99393.31;;;18.78;86.84
10310;BME280;5200;43.236;27.986;2022-08-01T02:00:41;99390.63;;;18.78;86.92
10310;BME280;5200;43.236;27.986;2022-08-01T02:03:10;99408.25;;;18.86;85.98
10310;BME280;5200;43.236;27.986;2022-08-01T02:05:38;99407.06;;;18.82;86.01
10310;BME280;5200;43.236;27.986;2022-08-01T02:08:07;99403.94;;;18.71;86.48
10310;BME280;5200;43.236;27.986;2022-08-01T02:10:37;99408.44;;;18.71;86.53
10310;BME280;5200;43.236;27.986;2022-08-01T02:13:05;99395.53;;;18.54;87.23
10310;BME280;5200;43.236;27.986;2022-08-01T02:15:34;99397.56;;;18.46;87.17
10310;BME280;5200;43.236;27.986;2022-08-01T02:18:06;99398.38;;;18.53;87.58
10310;BME280;5200;43.236;27.986;2022-08-01T02:20:35;99375.25;;;18.40;87.11
10310;BME280;5200;43.236;27.986;2022-08-01T02:23:07;99406.19;;;18.54;86.20
10310;BME280;5200;43.236;27.986;2022-08-01T02:25:39;99393.50;;;18.56;85.63
10310;BME280;5200;43.236;27.986;2022-08-01T02:28:10;99388.56;;;18.53;84.71
10310;BME280;5200;43.236;27.986;2022-08-01T02:30:44;99372.59;;;18.53;84.14
10310;BME280;5200;43.236;27.986;2022-08-01T02:33:17;99386.09;;;18.72;83.50
10310;BME280;5200;43.236;27.986;2022-08-01T02:35:48;99395.94;;;18.65;84.12
10310;BME280;5200;43.236;27.986;2022-08-01T02:38:17;99385.91;;;18.53;84.48
10310;BME280;5200;43.236;27.986;2022-08-01T02:40:47;99393.91;;;18.53;84.67
10310;BME280;5200;43.236;27.986;2022-08-01T02:43:18;99369.28;;;18.38;84.52
10310;BME280;5200;43.236;27.986;2022-08-01T02:45:49;99405.78;;;18.51;84.09
10310;BME280;5200;43.236;27.986;2022-08-01T02:48:21;99374.00;;;18.36;83.86
10310;BME280;5200;43.236;27.986;2022-08-01T02:50:52;99381.59;;;18.39;83.75
10310;BME280;5200;43.236;27.986;2022-08-01T02:53:21;99406.19;;;18.54;83.02
10310;BME280;5200;43.236;27.986;2022-08-01T02:55:50;99384.25;;;18.39;83.49
10310;BME280;5200;43.236;27.986;2022-08-01T02:58:19;99382.22;;;18.34;83.84
10310;BME280;5200;43.236;27.986;2022-08-01T03:00:51;99395.31;;;18.43;83.63
10310;BME280;5200;43.236;27.986;2022-08-01T03:03:20;99383.41;;;18.38;83.83
10310;BME280;5200;43.236;27.986;2022-08-01T03:05:48;99396.34;;;18.48;84.06
10310;BME280;5200;43.236;27.986;2022-08-01T03:08:15;99390.19;;;18.41;83.74
10310;BME280;5200;43.236;27.986;2022-08-01T03:10:45;99381.59;;;18.52;83.38
10310;BME280;5200;43.236;27.986;2022-08-01T03:13:14;99388.16;;;18.70;82.12
10310;BME280;5200;43.236;27.986;2022-08-01T03:15:43;99417.88;;;19.07;80.97
10310;BME280;5200;43.236;27.986;2022-08-01T03:18:12;99393.44;;;19.23;79.73
10310;BME280;5200;43.236;27.986;2022-08-01T03:20:42;99417.13;;;19.64;78.09
10310;BME280;5200;43.236;27.986;2022-08-01T03:23:11;99406.13;;;19.99;76.41
10310;BME280;5200;43.236;27.986;2022-08-01T03:25:40;99396.09;;;20.26;74.08
10310;BME280;5200;43.236;27.986;2022-08-01T03:28:08;99390.72;;;20.65;72.25
10310;BME280;5200;43.236;27.986;2022-08-01T03:30:39;99409.25;;;21.10;70.60
10310;BME280;5200;43.236;27.986;2022-08-01T03:33:07;99394.38;;;21.32;69.31
10310;BME280;5200;43.236;27.986;2022-08-01T03:35:39;99408.84;;;21.68;67.67
10310;BME280;5200;43.236;27.986;2022-08-01T03:38:08;99393.22;;;21.95;66.97
10310;BME280;5200;43.236;27.986;2022-08-01T03:40:39;99378.25;;;22.25;64.08
10310;BME280;5200;43.236;27.986;2022-08-01T03:43:12;99381.19;;;22.58;62.96
10310;BME280;5200;43.236;27.986;2022-08-01T03:45:46;99369.09;;;22.79;61.20
10310;BME280;5200;43.236;27.986;2022-08-01T03:48:17;99391.59;;;23.14;59.96
10310;BME280;5200;43.236;27.986;2022-08-01T03:50:48;99362.34;;;23.12;58.63
10310;BME280;5200;43.236;27.986;2022-08-01T03:53:20;99375.03;;;23.40;57.40
10310;BME280;5200;43.236;27.986;2022-08-01T03:55:49;99361.34;;;23.42;56.58
10310;BME280;5200;43.236;27.986;2022-08-01T03:58:17;99341.72;;;23.53;55.64
10310;BME280;5200;43.236;27.986;2022-08-01T04:00:45;99373.88;;;23.77;54.84
10310;BME280;5200;43.236;27.986;2022-08-01T04:03:13;99341.28;;;23.85;54.13
10310;BME280;5200;43.236;27.986;2022-08-01T04:05:41;99339.34;;;23.97;53.32
10310;BME280;5200;43.236;27.986;2022-08-01T04:08:08;99341.25;;;24.14;52.55
10310;BME280;5200;43.236;27.986;2022-08-01T04:10:38;99347.56;;;24.08;52.61
10310;BME280;5200;43.236;27.986;2022-08-01T04:13:05;99358.69;;;24.28;51.27
10310;BME280;5200;43.236;27.986;2022-08-01T04:15:32;99358.81;;;24.21;51.43
10310;BME280;5200;43.236;27.986;2022-08-01T04:17:59;99365.78;;;24.34;51.37
10310;BME280;5200;43.236;27.986;2022-08-01T04:20:26;99335.44;;;24.22;51.31
10310;BME280;5200;43.236;27.986;2022-08-01T04:22:53;99350.69;;;24.33;50.79
10310;BME280;5200;43.236;27.986;2022-08-01T04:25:24;99353.53;;;24.43;50.81
10310;BME280;5200;43.236;27.986;2022-08-01T04:27:54;99361.06;;;24.41;51.01
10310;BME280;5200;43.236;27.986;2022-08-01T04:30:26;99340.66;;;24.45;50.79
10310;BME280;5200;43.236;27.986;2022-08-01T04:32:55;99347.47;;;24.65;50.29
10310;BME280;5200;43.236;27.986;2022-08-01T04:35:24;99321.78;;;24.57;49.71
10310;BME280;5200;43.236;27.986;2022-08-01T04:37:53;99349.31;;;24.64;49.91
10310;BME280;5200;43.236;27.986;2022-08-01T04:40:21;99335.22;;;24.57;49.69
10310;BME280;5200;43.236;27.986;2022-08-01T04:42:49;99346.22;;;24.73;50.11
10310;BME280;5200;43.236;27.986;2022-08-01T04:45:18;99331.81;;;24.62;49.35
10310;BME280;5200;43.236;27.986;2022-08-01T04:47:45;99344.03;;;24.53;49.77
10310;BME280;5200;43.236;27.986;2022-08-01T04:50:13;99318.16;;;24.46;50.58
10310;BME280;5200;43.236;27.986;2022-08-01T04:52:40;99332.72;;;24.67;50.46
10310;BME280;5200;43.236;27.986;2022-08-01T04:55:09;99354.81;;;24.70;50.64
10310;BME280;5200;43.236;27.986;2022-08-01T04:57:39;99335.72;;;24.71;50.37
10310;BME280;5200;43.236;27.986;2022-08-01T05:00:08;99322.28;;;24.54;50.68
10310;BME280;5200;43.236;27.986;2022-08-01T05:02:37;99363.03;;;24.63;51.41
10310;BME280;5200;43.236;27.986;2022-08-01T05:05:05;99367.69;;;24.67;51.62
10310;BME280;5200;43.236;27.986;2022-08-01T05:07:32;99379.47;;;24.83;51.92
10310;BME280;5200;43.236;27.986;2022-08-01T05:10:01;99381.97;;;25.07;51.34
10310;BME280;5200;43.236;27.986;2022-08-01T05:12:28;99372.03;;;25.07;50.82
10310;BME280;5200;43.236;27.986;2022-08-01T05:14:57;99382.66;;;25.36;50.55
10310;BME280;5200;43.236;27.986;2022-08-01T05:17:24;99389.25;;;25.45;50.39
10310;BME280;5200;43.236;27.986;2022-08-01T05:19:52;99368.50;;;25.46;50.23
10310;BME280;5200;43.236;27.986;2022-08-01T05:22:19;99376.16;;;25.54;49.83
10310;BME280;5200;43.236;27.986;2022-08-01T05:24:47;99384.09;;;25.66;49.81
10310;BME280;5200;43.236;27.986;2022-08-01T05:27:14;99387.75;;;25.82;48.69
10310;BME280;5200;43.236;27.986;2022-08-01T05:29:41;99375.66;;;25.84;48.19
10310;BME280;5200;43.236;27.986;2022-08-01T05:32:08;99388.41;;;26.16;48.35
10310;BME280;5200;43.236;27.986;2022-08-01T05:34:36;99384.00;;;26.32;47.38
10310;BME280;5200;43.236;27.986;2022-08-01T05:37:04;99373.88;;;26.49;46.01
10310;BME280;5200;43.236;27.986;2022-08-01T05:39:32;99380.16;;;26.55;46.87
10310;BME280;5200;43.236;27.986;2022-08-01T05:41:59;99375.13;;;26.69;45.46
10310;BME280;5200;43.236;27.986;2022-08-01T05:44:26;99372.94;;;26.66;45.34
10310;BME280;5200;43.236;27.986;2022-08-01T05:46:53;99363.47;;;26.58;46.05
10310;BME280;5200;43.236;27.986;2022-08-01T05:49:20;99371.28;;;26.60;44.86
10310;BME280;5200;43.236;27.986;2022-08-01T05:51:47;99371.94;;;26.72;46.12
10310;BME280;5200;43.236;27.986;2022-08-01T05:54:15;99381.47;;;26.90;45.44
10310;BME280;5200;43.236;27.986;2022-08-01T05:56:42;99351.53;;;26.91;44.77
10310;BME280;5200;43.236;27.986;2022-08-01T05:59:09;99358.66;;;27.13;45.07
10310;BME280;5200;43.236;27.986;2022-08-01T06:01:36;99370.66;;;27.27;44.31
10310;BME280;5200;43.236;27.986;2022-08-01T06:04:03;99363.13;;;27.34;43.77
10310;BME280;5200;43.236;27.986;2022-08-01T06:06:30;99356.56;;;27.20;43.80
10310;BME280;5200;43.236;27.986;2022-08-01T06:08:57;99349.47;;;27.14;43.20
10310;BME280;5200;43.236;27.986;2022-08-01T06:11:26;99334.44;;;27.23;43.67
10310;BME280;5200;43.236;27.986;2022-08-01T06:13:53;99342.28;;;27.19;43.08
10310;BME280;5200;43.236;27.986;2022-08-01T06:16:19;99343.28;;;27.13;42.85
10310;BME280;5200;43.236;27.986;2022-08-01T06:18:46;99339.75;;;27.08;43.22
10310;BME280;5200;43.236;27.986;2022-08-01T06:21:13;99331.09;;;27.06;42.87
10310;BME280;5200;43.236;27.986;2022-08-01T06:23:40;99337.06;;;27.13;42.81
10310;BME280;5200;43.236;27.986;2022-08-01T06:26:08;99323.63;;;27.23;41.81
10310;BME280;5200;43.236;27.986;2022-08-01T06:28:36;99324.19;;;27.30;41.95
10310;BME280;5200;43.236;27.986;2022-08-01T06:31:03;99326.34;;;27.23;42.27
10310;BME280;5200;43.236;27.986;2022-08-01T06:33:30;99326.88;;;27.20;42.33
10310;BME280;5200;43.236;27.986;2022-08-01T06:35:57;99335.28;;;27.24;41.52
10310;BME280;5200;43.236;27.986;2022-08-01T06:38:24;99336.97;;;27.40;41.93
10310;BME280;5200;43.236;27.986;2022-08-01T06:40:51;99327.22;;;27.44;41.68
10310;BME280;5200;43.236;27.986;2022-08-01T06:43:18;99310.22;;;27.44;41.30
10310;BME280;5200;43.236;27.986;2022-08-01T06:45:48;99329.72;;;27.61;41.21
10310;BME280;5200;43.236;27.986;2022-08-01T06:48:15;99344.88;;;27.77;41.32
10310;BME280;5200;43.236;27.986;2022-08-01T06:50:42;99338.47;;;27.99;40.74
10310;BME280;5200;43.236;27.986;2022-08-01T06:53:09;99342.81;;;28.15;40.96
10310;BME280;5200;43.236;27.986;2022-08-01T06:55:36;99343.63;;;28.26;40.45
10310;BME280;5200;43.236;27.986;2022-08-01T06:58:04;99356.34;;;28.31;39.50
10310;BME280;5200;43.236;27.986;2022-08-01T07:00:31;99360.69;;;28.37;39.69
10310;BME280;5200;43.236;27.986;2022-08-01T07:02:59;99356.34;;;28.56;38.92
10310;BME280;5200;43.236;27.986;2022-08-01T07:05:26;99364.75;;;28.50;38.65
10310;BME280;5200;43.236;27.986;2022-08-01T07:07:56;99365.53;;;28.40;38.19
10310;BME280;5200;43.236;27.986;2022-08-01T07:10:23;99366.63;;;28.39;38.95
10310;BME280;5200;43.236;27.986;2022-08-01T07:12:52;99381.53;;;28.47;38.76
10310;BME280;5200;43.236;27.986;2022-08-01T07:15:19;99387.22;;;28.60;39.24
10310;BME280;5200;43.236;27.986;2022-08-01T07:17:52;99397.72;;;28.87;38.35
10310;BME280;5200;43.236;27.986;2022-08-01T07:20:20;99400.97;;;29.05;37.87
10310;BME280;5200;43.236;27.986;2022-08-01T07:22:47;99407.44;;;29.24;37.53
10310;BME280;5200;43.236;27.986;2022-08-01T07:25:14;99402.28;;;29.28;37.84
10310;BME280;5200;43.236;27.986;2022-08-01T07:27:41;99399.56;;;29.33;37.69
10310;BME280;5200;43.236;27.986;2022-08-01T07:30:08;99410.28;;;29.64;37.39
10310;BME280;5200;43.236;27.986;2022-08-01T07:32:35;99418.31;;;29.84;36.61
10310;BME280;5200;43.236;27.986;2022-08-01T07:35:03;99398.84;;;29.72;35.36
10310;BME280;5200;43.236;27.986;2022-08-01T07:37:31;99407.81;;;29.73;36.66
10310;BME280;5200;43.236;27.986;2022-08-01T07:39:58;99401.03;;;29.65;36.40
10310;BME280;5200;43.236;27.986;2022-08-01T07:42:25;99391.56;;;29.67;36.95
10310;BME280;5200;43.236;27.986;2022-08-01T07:44:52;99396.66;;;29.79;36.70
10310;BME280;5200;43.236;27.986;2022-08-01T07:47:23;99391.19;;;29.84;36.36
10310;BME280;5200;43.236;27.986;2022-08-01T07:49:50;99398.78;;;29.87;35.66
10310;BME280;5200;43.236;27.986;2022-08-01T07:52:17;99401.13;;;30.04;35.11
10310;BME280;5200;43.236;27.986;2022-08-01T07:54:46;99401.41;;;30.03;34.89
10310;BME280;5200;43.236;27.986;2022-08-01T07:57:12;99398.72;;;29.98;34.47
10310;BME280;5200;43.236;27.986;2022-08-01T07:59:39;99402.72;;;30.10;34.93
10310;BME280;5200;43.236;27.986;2022-08-01T08:02:06;99404.50;;;30.25;35.09
10310;BME280;5200;43.236;27.986;2022-08-01T08:04:33;99408.72;;;30.47;34.24
10310;BME280;5200;43.236;27.986;2022-08-01T08:07:00;99412.97;;;30.58;33.76
10310;BME280;5200;43.236;27.986;2022-08-01T08:09:27;99405.34;;;30.60;34.17
10310;BME280;5200;43.236;27.986;2022-08-01T08:11:56;99395.03;;;30.62;32.97
10310;BME280;5200;43.236;27.986;2022-08-01T08:14:23;99408.03;;;30.65;33.04
10310;BME280;5200;43.236;27.986;2022-08-01T08:16:50;99403.06;;;30.72;34.43
10310;BME280;5200;43.236;27.986;2022-08-01T08:19:18;99406.16;;;30.95;32.31
10310;BME280;5200;43.236;27.986;2022-08-01T08:21:54;99404.88;;;31.11;33.38
10310;BME280;5200;43.236;27.986;2022-08-01T08:24:21;99406.72;;;31.16;32.93
10310;BME280;5200;43.236;27.986;2022-08-01T08:26:51;99390.03;;;31.28;33.84
10310;BME280;5200;43.236;27.986;2022-08-01T08:29:23;99397.81;;;31.34;33.52
10310;BME280;5200;43.236;27.986;2022-08-01T08:31:51;99390.13;;;31.47;33.09
10310;BME280;5200;43.236;27.986;2022-08-01T08:34:18;99402.78;;;31.56;33.35
10310;BME280;5200;43.236;27.986;2022-08-01T08:36:46;99404.31;;;31.63;32.25
10310;BME280;5200;43.236;27.986;2022-08-01T08:39:13;99401.47;;;31.73;32.75
10310;BME280;5200;43.236;27.986;2022-08-01T08:41:41;99406.56;;;31.98;32.37
10310;BME280;5200;43.236;27.986;2022-08-01T08:44:08;99403.03;;;32.17;32.13
10310;BME280;5200;43.236;27.986;2022-08-01T08:46:40;99408.47;;;32.17;31.48
10310;BME280;5200;43.236;27.986;2022-08-01T08:49:08;99403.97;;;32.26;31.45
10310;BME280;5200;43.236;27.986;2022-08-01T08:51:38;99391.72;;;32.10;29.64
10310;BME280;5200;43.236;27.986;2022-08-01T08:54:06;99401.84;;;32.23;30.46
10310;BME280;5200;43.236;27.986;2022-08-01T08:56:35;99395.66;;;32.36;30.30
10310;BME280;5200;43.236;27.986;2022-08-01T08:59:02;99399.78;;;32.53;30.56
10310;BME280;5200;43.236;27.986;2022-08-01T09:01:31;99389.91;;;32.57;29.92
10310;BME280;5200;43.236;27.986;2022-08-01T09:04:01;99385.66;;;32.51;29.98
10310;BME280;5200;43.236;27.986;2022-08-01T09:06:29;99384.38;;;32.43;30.60
10310;BME280;5200;43.236;27.986;2022-08-01T09:08:56;99379.09;;;32.33;30.42
10310;BME280;5200;43.236;27.986;2022-08-01T09:11:23;99383.84;;;32.27;31.13
10310;BME280;5200;43.236;27.986;2022-08-01T09:14:08;99381.16;;;32.41;31.34
10310;BME280;5200;43.236;27.986;2022-08-01T09:16:36;99386.50;;;32.65;30.61
10310;BME280;5200;43.236;27.986;2022-08-01T09:19:13;99384.97;;;32.59;29.10
10310;BME280;5200;43.236;27.986;2022-08-01T09:21:55;99374.81;;;32.13;28.84
10310;BME280;5200;43.236;27.986;2022-08-01T09:24:23;99375.88;;;31.93;29.89
10310;BME280;5200;43.236;27.986;2022-08-01T09:26:51;99374.50;;;31.95;30.20
10310;BME280;5200;43.236;27.986;2022-08-01T09:29:20;99382.28;;;32.21;30.29
10310;BME280;5200;43.236;27.986;2022-08-01T09:31:48;99382.72;;;32.28;30.53
10310;BME280;5200;43.236;27.986;2022-08-01T09:34:24;99368.88;;;32.43;30.39
10310;BME280;5200;43.236;27.986;2022-08-01T09:36:53;99379.25;;;32.74;29.25
10310;BME280;5200;43.236;27.986;2022-08-01T09:39:24;99366.75;;;32.87;29.96
10310;BME280;5200;43.236;27.986;2022-08-01T09:41:51;99352.44;;;32.81;29.25
10310;BME280;5200;43.236;27.986;2022-08-01T09:44:18;99367.38;;;32.98;29.25
10310;BME280;5200;43.236;27.986;2022-08-01T09:46:50;99354.06;;;32.96;29.62
10310;BME280;5200;43.236;27.986;2022-08-01T09:49:29;99366.69;;;33.06;29.38
10310;BME280;5200;43.236;27.986;2022-08-01T09:51:57;99352.63;;;32.99;29.09
10310;BME280;5200;43.236;27.986;2022-08-01T09:54:29;99356.06;;;32.91;29.78
10310;BME280;5200;43.236;27.986;2022-08-01T09:57:08;99366.38;;;32.94;29.33
10310;BME280;5200;43.236;27.986;2022-08-01T09:59:35;99363.13;;;32.92;28.99
10310;BME280;5200;43.236;27.986;2022-08-01T10:02:06;99366.59;;;32.97;29.21
10310;BME280;5200;43.236;27.986;2022-08-01T10:04:35;99360.91;;;32.94;29.14
10310;BME280;5200;43.236;27.986;2022-08-01T10:07:06;99380.13;;;33.16;28.58
10310;BME280;5200;43.236;27.986;2022-08-01T10:09:35;99380.63;;;33.18;27.84
10310;BME280;5200;43.236;27.986;2022-08-01T10:12:03;99378.81;;;33.27;27.72
10310;BME280;5200;43.236;27.986;2022-08-01T10:14:31;99377.47;;;33.39;28.50
10310;BME280;5200;43.236;27.986;2022-08-01T10:17:00;99379.13;;;33.40;27.88
10310;BME280;5200;43.236;27.986;2022-08-01T10:19:29;99370.22;;;33.48;26.62
10310;BME280;5200;43.236;27.986;2022-08-01T10:22:01;99367.19;;;33.36;27.99
10310;BME280;5200;43.236;27.986;2022-08-01T10:24:29;99365.94;;;33.56;26.68
10310;BME280;5200;43.236;27.986;2022-08-01T10:26:58;99374.91;;;33.84;25.58
10310;BME280;5200;43.236;27.986;2022-08-01T10:29:32;99367.84;;;33.83;26.11
10310;BME280;5200;43.236;27.986;2022-08-01T10:32:01;99371.41;;;33.42;27.81
10310;BME280;5200;43.236;27.986;2022-08-01T10:34:30;99360.75;;;33.04;27.75
10310;BME280;5200;43.236;27.986;2022-08-01T10:36:59;99357.78;;;32.87;28.28
10310;BME280;5200;43.236;27.986;2022-08-01T10:39:26;99373.00;;;32.88;28.54
10310;BME280;5200;43.236;27.986;2022-08-01T10:41:55;99370.44;;;32.63;26.89
10310;BME280;5200;43.236;27.986;2022-08-01T10:44:23;99372.00;;;32.18;28.27
10310;BME280;5200;43.236;27.986;2022-08-01T10:46:54;99388.16;;;31.90;28.48
10310;BME280;5200;43.236;27.986;2022-08-01T10:49:25;99363.50;;;32.06;28.82
10310;BME280;5200;43.236;27.986;2022-08-01T10:51:54;99381.81;;;32.52;28.24
10310;BME280;5200;43.236;27.986;2022-08-01T10:54:26;99361.06;;;32.56;27.64
10310;BME280;5200;43.236;27.986;2022-08-01T10:56:53;99381.16;;;32.41;27.90
10310;BME280;5200;43.236;27.986;2022-08-01T10:59:23;99366.00;;;32.35;28.20
10310;BME280;5200;43.236;27.986;2022-08-01T11:01:57;99372.50;;;32.72;26.92
10310;BME280;5200;43.236;27.986;2022-08-01T11:04:44;99361.75;;;33.08;27.87
10310;BME280;5200;43.236;27.986;2022-08-01T11:07:17;99369.81;;;33.27;27.25
10310;BME280;5200;43.236;27.986;2022-08-01T11:09:48;99365.97;;;32.87;27.80
10310;BME280;5200;43.236;27.986;2022-08-01T11:12:37;99372.00;;;32.18;27.63
10310;BME280;5200;43.236;27.986;2022-08-01T11:15:23;99369.94;;;31.72;30.20
10310;BME280;5200;43.236;27.986;2022-08-01T11:17:54;99362.84;;;31.28;31.62
10310;BME280;5200;43.236;27.986;2022-08-01T11:20:23;99344.47;;;31.20;31.62
10310;BME280;5200;43.236;27.986;2022-08-01T11:23:22;99357.56;;;31.60;31.10
10310;BME280;5200;43.236;27.986;2022-08-01T11:26:12;99360.72;;;31.87;30.83
10310;BME280;5200;43.236;27.986;2022-08-01T11:28:41;99345.09;;;32.16;30.34
10310;BME280;5200;43.236;27.986;2022-08-01T11:31:29;99352.72;;;32.47;27.37
10310;BME280;5200;43.236;27.986;2022-08-01T11:33:58;99353.41;;;32.58;28.43
10310;BME280;5200;43.236;27.986;2022-08-01T11:36:25;99351.13;;;32.79;28.63
10310;BME280;5200;43.236;27.986;2022-08-01T11:39:15;99341.56;;;32.95;28.76
10310;BME280;5200;43.236;27.986;2022-08-01T11:41:45;99351.22;;;33.01;27.97
10310;BME280;5200;43.236;27.986;2022-08-01T11:44:18;99332.44;;;32.72;26.89
10310;BME280;5200;43.236;27.986;2022-08-01T11:46:50;99342.69;;;32.29;28.60
10310;BME280;5200;43.236;27.986;2022-08-01T11:49:43;99337.09;;;31.87;27.92
10310;BME280;5200;43.236;27.986;2022-08-01T11:52:16;99347.75;;;32.03;28.17
10310;BME280;5200;43.236;27.986;2022-08-01T11:54:46;99353.47;;;32.20;28.26
10310;BME280;5200;43.236;27.986;2022-08-01T11:57:19;99354.13;;;32.12;28.03
10310;BME280;5200;43.236;27.986;2022-08-01T11:59:47;99340.47;;;31.79;29.04
10310;BME280;5200;43.236;27.986;2022-08-01T12:02:25;99354.06;;;31.79;29.04
10310;BME280;5200;43.236;27.986;2022-08-01T12:04:55;99348.06;;;32.01;28.89
10310;BME280;5200;43.236;27.986;2022-08-01T12:07:22;99335.59;;;32.14;27.89
10310;BME280;5200;43.236;27.986;2022-08-01T12:09:57;99339.13;;;32.14;27.50
10310;BME280;5200;43.236;27.986;2022-08-01T12:12:26;99330.84;;;32.06;27.00
10310;BME280;5200;43.236;27.986;2022-08-01T12:14:54;99335.22;;;32.20;27.75
10310;BME280;5200;43.236;27.986;2022-08-01T12:17:35;99330.50;;;32.26;29.27
10310;BME280;5200;43.236;27.986;2022-08-01T12:20:04;99346.34;;;31.67;29.59
10310;BME280;5200;43.236;27.986;2022-08-01T12:22:32;99338.53;;;31.17;28.92
10310;BME280;5200;43.236;27.986;2022-08-01T12:25:05;99337.22;;;30.91;29.38
10310;BME280;5200;43.236;27.986;2022-08-01T12:27:35;99336.09;;;30.92;29.89
10310;BME280;5200;43.236;27.986;2022-08-01T12:30:05;99324.22;;;30.83;30.21
10310;BME280;5200;43.236;27.986;2022-08-01T12:32:33;99337.56;;;30.84;31.54
10310;BME280;5200;43.236;27.986;2022-08-01T12:35:04;99330.56;;;31.02;33.15
10310;BME280;5200;43.236;27.986;2022-08-01T12:37:32;99321.91;;;31.00;34.24
10310;BME280;5200;43.236;27.986;2022-08-01T12:40:02;99330.22;;;30.80;34.03
10310;BME280;5200;43.236;27.986;2022-08-01T12:42:29;99316.72;;;30.45;34.53
10310;BME280;5200;43.236;27.986;2022-08-01T12:44:58;99306.91;;;30.20;33.95
10310;BME280;5200;43.236;27.986;2022-08-01T12:47:25;99317.63;;;30.01;34.62
10310;BME280;5200;43.236;27.986;2022-08-01T12:49:52;99308.06;;;29.64;34.54
10310;BME280;5200;43.236;27.986;2022-08-01T12:52:19;99328.41;;;29.67;35.20
10310;BME280;5200;43.236;27.986;2022-08-01T12:55:05;99307.56;;;29.57;35.36
10310;BME280;5200;43.236;27.986;2022-08-01T12:57:34;99288.88;;;29.56;35.41
10310;BME280;5200;43.236;27.986;2022-08-01T13:00:11;99312.22;;;29.52;36.04
10310;BME280;5200;43.236;27.986;2022-08-01T13:02:40;99300.38;;;29.32;36.61
10310;BME280;5200;43.236;27.986;2022-08-01T13:05:08;99313.44;;;29.25;37.81
10310;BME280;5200;43.236;27.986;2022-08-01T13:07:38;99306.75;;;29.07;37.90
10310;BME280;5200;43.236;27.986;2022-08-01T13:10:06;99300.25;;;28.93;38.33
10310;BME280;5200;43.236;27.986;2022-08-01T13:12:34;99288.97;;;28.70;38.36